Haskins, Ohio
Current Conditions -  °F | °C
As of 6:52 PM on Wednesday 22 Oct 2014 (Local Time) from KTOL Reporting Station
Overcast Overcast  
Wind Chill: 51°   Ceiling: 3500
Heat Index: 51°   Visibility: 10mi
Dew Point: 40°   Wind: 6mph
Humidity: 66%   Direction: 290°WNW
Pressure: 30.28"   Gusts: NA
Location:  41.46°N, 83.71°W
Report Text: KTOL 222252Z 29005KT 10SM OVC035 11/04 A3028 RMK AO2 SLP255 T01060044
Loading
Personal Weather Stations






























Interactive Weather Map New forecast layout! Learn more

10-Day Weather Forecast

Advertisements
Track Severe Weather on mobile